sensor_id;sensor_type;location;lat;lon;timestamp;P1;durP1;ratioP1;P2;durP2;ratioP2
25503;SDS011;13410;52.114;5.718;2023-02-07T00:00:09;26.48;;;10.23;;
25503;SDS011;13410;52.114;5.718;2023-02-07T00:02:36;32.20;;;12.50;;
25503;SDS011;13410;52.114;5.718;2023-02-07T00:05:02;32.97;;;14.07;;
25503;SDS011;13410;52.114;5.718;2023-02-07T00:07:28;31.67;;;14.10;;
25503;SDS011;13410;52.114;5.718;2023-02-07T00:09:53;34.03;;;12.93;;
25503;SDS011;13410;52.114;5.718;2023-02-07T00:12:20;23.85;;;10.48;;
25503;SDS011;13410;52.114;5.718;2023-02-07T00:14:46;31.80;;;11.05;;
25503;SDS011;13410;52.114;5.718;2023-02-07T00:17:11;26.17;;;10.68;;
25503;SDS011;13410;52.114;5.718;2023-02-07T00:19:37;27.42;;;11.07;;
25503;SDS011;13410;52.114;5.718;2023-02-07T00:22:02;32.65;;;11.13;;
25503;SDS011;13410;52.114;5.718;2023-02-07T00:24:28;33.72;;;11.15;;
25503;SDS011;13410;52.114;5.718;2023-02-07T00:26:53;27.10;;;10.63;;
25503;SDS011;13410;52.114;5.718;2023-02-07T00:29:19;28.70;;;11.45;;
25503;SDS011;13410;52.114;5.718;2023-02-07T00:31:45;27.65;;;10.60;;
25503;SDS011;13410;52.114;5.718;2023-02-07T00:34:11;35.42;;;11.98;;
25503;SDS011;13410;52.114;5.718;2023-02-07T00:36:38;23.50;;;10.93;;
25503;SDS011;13410;52.114;5.718;2023-02-07T00:39:05;26.80;;;10.43;;
25503;SDS011;13410;52.114;5.718;2023-02-07T00:41:34;24.27;;;9.85;;
25503;SDS011;13410;52.114;5.718;2023-02-07T00:44:00;24.15;;;9.13;;
25503;SDS011;13410;52.114;5.718;2023-02-07T00:46:25;25.25;;;9.23;;
25503;SDS011;13410;52.114;5.718;2023-02-07T00:48:51;26.15;;;8.18;;
25503;SDS011;13410;52.114;5.718;2023-02-07T00:51:17;23.20;;;8.02;;
25503;SDS011;13410;52.114;5.718;2023-02-07T00:53:43;18.17;;;7.97;;
25503;SDS011;13410;52.114;5.718;2023-02-07T00:56:09;21.42;;;7.38;;
25503;SDS011;13410;52.114;5.718;2023-02-07T00:58:35;21.05;;;7.07;;
25503;SDS011;13410;52.114;5.718;2023-02-07T01:01:02;19.73;;;7.05;;
25503;SDS011;13410;52.114;5.718;2023-02-07T01:03:28;22.52;;;7.88;;
25503;SDS011;13410;52.114;5.718;2023-02-07T01:05:54;18.83;;;7.90;;
25503;SDS011;13410;52.114;5.718;2023-02-07T01:08:19;21.08;;;7.93;;
25503;SDS011;13410;52.114;5.718;2023-02-07T01:10:45;31.00;;;9.55;;
25503;SDS011;13410;52.114;5.718;2023-02-07T01:13:12;26.75;;;9.38;;
25503;SDS011;13410;52.114;5.718;2023-02-07T01:15:39;24.90;;;8.88;;
25503;SDS011;13410;52.114;5.718;2023-02-07T01:18:08;23.27;;;8.23;;
25503;SDS011;13410;52.114;5.718;2023-02-07T01:20:34;27.15;;;11.48;;
25503;SDS011;13410;52.114;5.718;2023-02-07T01:23:00;30.85;;;11.60;;
25503;SDS011;13410;52.114;5.718;2023-02-07T01:25:26;28.45;;;10.23;;
25503;SDS011;13410;52.114;5.718;2023-02-07T01:27:52;26.85;;;11.30;;
25503;SDS011;13410;52.114;5.718;2023-02-07T01:30:17;32.72;;;13.80;;
25503;SDS011;13410;52.114;5.718;2023-02-07T01:32:43;33.80;;;14.32;;
25503;SDS011;13410;52.114;5.718;2023-02-07T01:35:09;30.98;;;13.43;;
25503;SDS011;13410;52.114;5.718;2023-02-07T01:37:34;32.20;;;12.75;;
25503;SDS011;13410;52.114;5.718;2023-02-07T01:40:00;30.27;;;12.73;;
25503;SDS011;13410;52.114;5.718;2023-02-07T01:42:26;29.52;;;12.80;;
25503;SDS011;13410;52.114;5.718;2023-02-07T01:47:20;35.30;;;11.45;;
25503;SDS011;13410;52.114;5.718;2023-02-07T01:49:47;26.40;;;11.70;;
25503;SDS011;13410;52.114;5.718;2023-02-07T01:52:15;31.23;;;12.90;;
25503;SDS011;13410;52.114;5.718;2023-02-07T01:54:47;31.23;;;14.07;;
25503;SDS011;13410;52.114;5.718;2023-02-07T01:57:18;36.63;;;12.85;;
25503;SDS011;13410;52.114;5.718;2023-02-07T01:59:47;29.02;;;10.10;;
25503;SDS011;13410;52.114;5.718;2023-02-07T02:02:18;25.92;;;9.75;;
25503;SDS011;13410;52.114;5.718;2023-02-07T02:04:45;22.05;;;9.23;;
25503;SDS011;13410;52.114;5.718;2023-02-07T02:07:13;26.80;;;9.40;;
25503;SDS011;13410;52.114;5.718;2023-02-07T02:09:39;33.42;;;10.88;;
25503;SDS011;13410;52.114;5.718;2023-02-07T02:23:36;27.73;;;11.18;;
25503;SDS011;13410;52.114;5.718;2023-02-07T02:32:31;29.85;;;10.00;;
25503;SDS011;13410;52.114;5.718;2023-02-07T02:35:14;26.38;;;9.40;;
25503;SDS011;13410;52.114;5.718;2023-02-07T02:37:45;24.63;;;8.85;;
25503;SDS011;13410;52.114;5.718;2023-02-07T02:43:03;28.15;;;9.38;;
25503;SDS011;13410;52.114;5.718;2023-02-07T02:45:41;28.05;;;10.13;;
25503;SDS011;13410;52.114;5.718;2023-02-07T02:48:13;26.10;;;9.15;;
25503;SDS011;13410;52.114;5.718;2023-02-07T02:50:43;26.20;;;9.02;;
25503;SDS011;13410;52.114;5.718;2023-02-07T02:53:11;21.52;;;9.20;;
25503;SDS011;13410;52.114;5.718;2023-02-07T02:58:26;28.83;;;8.90;;
25503;SDS011;13410;52.114;5.718;2023-02-07T03:07:03;24.45;;;8.70;;
25503;SDS011;13410;52.114;5.718;2023-02-07T03:12:21;29.85;;;8.75;;
25503;SDS011;13410;52.114;5.718;2023-02-07T03:20:29;38.05;;;9.57;;
25503;SDS011;13410;52.114;5.718;2023-02-07T03:23:08;37.58;;;10.05;;
25503;SDS011;13410;52.114;5.718;2023-02-07T03:25:36;38.63;;;10.38;;
25503;SDS011;13410;52.114;5.718;2023-02-07T03:28:04;43.08;;;10.50;;
25503;SDS011;13410;52.114;5.718;2023-02-07T03:30:32;54.22;;;10.63;;
25503;SDS011;13410;52.114;5.718;2023-02-07T03:33:01;45.90;;;11.57;;
25503;SDS011;13410;52.114;5.718;2023-02-07T03:38:32;29.58;;;10.25;;
25503;SDS011;13410;52.114;5.718;2023-02-07T03:40:59;27.02;;;9.93;;
25503;SDS011;13410;52.114;5.718;2023-02-07T03:43:35;33.75;;;10.38;;
25503;SDS011;13410;52.114;5.718;2023-02-07T03:46:02;29.38;;;9.80;;
25503;SDS011;13410;52.114;5.718;2023-02-07T03:48:28;30.95;;;9.88;;
25503;SDS011;13410;52.114;5.718;2023-02-07T03:50:53;34.70;;;11.02;;
25503;SDS011;13410;52.114;5.718;2023-02-07T03:53:19;25.13;;;10.63;;
25503;SDS011;13410;52.114;5.718;2023-02-07T03:55:45;31.25;;;11.85;;
25503;SDS011;13410;52.114;5.718;2023-02-07T03:58:10;27.33;;;10.88;;
25503;SDS011;13410;52.114;5.718;2023-02-07T04:00:36;29.55;;;11.07;;
25503;SDS011;13410;52.114;5.718;2023-02-07T04:03:02;28.00;;;11.88;;
25503;SDS011;13410;52.114;5.718;2023-02-07T04:05:28;26.27;;;11.23;;
25503;SDS011;13410;52.114;5.718;2023-02-07T04:07:54;25.20;;;11.00;;
25503;SDS011;13410;52.114;5.718;2023-02-07T04:10:19;29.10;;;11.05;;
25503;SDS011;13410;52.114;5.718;2023-02-07T04:12:45;35.75;;;11.90;;
25503;SDS011;13410;52.114;5.718;2023-02-07T04:15:11;33.88;;;11.98;;
25503;SDS011;13410;52.114;5.718;2023-02-07T04:17:37;31.38;;;11.75;;
25503;SDS011;13410;52.114;5.718;2023-02-07T04:20:03;31.77;;;10.65;;
25503;SDS011;13410;52.114;5.718;2023-02-07T04:22:30;33.17;;;11.27;;
25503;SDS011;13410;52.114;5.718;2023-02-07T04:24:56;35.50;;;9.98;;
25503;SDS011;13410;52.114;5.718;2023-02-07T04:27:22;29.10;;;10.20;;
25503;SDS011;13410;52.114;5.718;2023-02-07T04:29:48;28.98;;;10.90;;
25503;SDS011;13410;52.114;5.718;2023-02-07T04:32:14;30.33;;;11.13;;
25503;SDS011;13410;52.114;5.718;2023-02-07T04:34:39;31.88;;;10.95;;
25503;SDS011;13410;52.114;5.718;2023-02-07T04:37:05;32.03;;;10.38;;
25503;SDS011;13410;52.114;5.718;2023-02-07T04:39:30;31.52;;;9.80;;
25503;SDS011;13410;52.114;5.718;2023-02-07T04:41:56;30.40;;;10.30;;
25503;SDS011;13410;52.114;5.718;2023-02-07T04:44:21;25.65;;;9.73;;
25503;SDS011;13410;52.114;5.718;2023-02-07T04:46:47;24.35;;;9.05;;
25503;SDS011;13410;52.114;5.718;2023-02-07T04:49:12;33.30;;;11.02;;
25503;SDS011;13410;52.114;5.718;2023-02-07T04:51:38;29.90;;;10.30;;
25503;SDS011;13410;52.114;5.718;2023-02-07T04:54:04;32.08;;;11.63;;
25503;SDS011;13410;52.114;5.718;2023-02-07T04:56:29;29.20;;;11.60;;
25503;SDS011;13410;52.114;5.718;2023-02-07T04:58:55;26.80;;;11.07;;
25503;SDS011;13410;52.114;5.718;2023-02-07T05:01:21;37.42;;;13.35;;
25503;SDS011;13410;52.114;5.718;2023-02-07T05:03:46;35.60;;;13.93;;
25503;SDS011;13410;52.114;5.718;2023-02-07T05:06:12;36.08;;;14.40;;
25503;SDS011;13410;52.114;5.718;2023-02-07T05:08:38;36.00;;;14.45;;
25503;SDS011;13410;52.114;5.718;2023-02-07T05:11:03;34.63;;;14.32;;
25503;SDS011;13410;52.114;5.718;2023-02-07T05:13:30;33.53;;;12.85;;
25503;SDS011;13410;52.114;5.718;2023-02-07T05:15:55;38.03;;;13.00;;
25503;SDS011;13410;52.114;5.718;2023-02-07T05:18:21;40.92;;;14.32;;
25503;SDS011;13410;52.114;5.718;2023-02-07T05:20:46;34.30;;;13.43;;
25503;SDS011;13410;52.114;5.718;2023-02-07T05:23:12;30.65;;;13.45;;
25503;SDS011;13410;52.114;5.718;2023-02-07T05:25:40;29.13;;;13.10;;
25503;SDS011;13410;52.114;5.718;2023-02-07T05:28:06;34.85;;;13.40;;
25503;SDS011;13410;52.114;5.718;2023-02-07T05:30:32;31.88;;;13.60;;
25503;SDS011;13410;52.114;5.718;2023-02-07T05:32:58;31.17;;;13.25;;
25503;SDS011;13410;52.114;5.718;2023-02-07T05:35:33;36.55;;;13.43;;
25503;SDS011;13410;52.114;5.718;2023-02-07T05:40:26;33.78;;;14.43;;
25503;SDS011;13410;52.114;5.718;2023-02-07T05:42:52;42.63;;;18.92;;
25503;SDS011;13410;52.114;5.718;2023-02-07T05:45:19;53.83;;;21.98;;
25503;SDS011;13410;52.114;5.718;2023-02-07T05:47:45;42.88;;;17.08;;
25503;SDS011;13410;52.114;5.718;2023-02-07T05:50:11;37.55;;;16.75;;
25503;SDS011;13410;52.114;5.718;2023-02-07T05:52:37;43.72;;;17.85;;
25503;SDS011;13410;52.114;5.718;2023-02-07T05:55:03;54.22;;;24.52;;
25503;SDS011;13410;52.114;5.718;2023-02-07T05:57:29;43.90;;;20.40;;
25503;SDS011;13410;52.114;5.718;2023-02-07T05:59:55;57.85;;;24.10;;
25503;SDS011;13410;52.114;5.718;2023-02-07T06:02:20;60.38;;;25.73;;
25503;SDS011;13410;52.114;5.718;2023-02-07T06:04:46;75.78;;;28.98;;
25503;SDS011;13410;52.114;5.718;2023-02-07T06:07:12;90.13;;;32.20;;
25503;SDS011;13410;52.114;5.718;2023-02-07T06:09:37;76.70;;;28.90;;
25503;SDS011;13410;52.114;5.718;2023-02-07T06:12:03;77.53;;;27.65;;
25503;SDS011;13410;52.114;5.718;2023-02-07T06:14:29;44.45;;;19.05;;
25503;SDS011;13410;52.114;5.718;2023-02-07T06:16:54;43.00;;;18.20;;
25503;SDS011;13410;52.114;5.718;2023-02-07T06:19:20;47.22;;;19.85;;
25503;SDS011;13410;52.114;5.718;2023-02-07T06:21:45;54.45;;;21.25;;
25503;SDS011;13410;52.114;5.718;2023-02-07T06:24:11;55.85;;;23.63;;
25503;SDS011;13410;52.114;5.718;2023-02-07T06:26:36;59.38;;;23.05;;
25503;SDS011;13410;52.114;5.718;2023-02-07T06:29:02;55.72;;;22.70;;
25503;SDS011;13410;52.114;5.718;2023-02-07T06:31:28;50.25;;;22.25;;
25503;SDS011;13410;52.114;5.718;2023-02-07T06:33:53;44.92;;;20.55;;
25503;SDS011;13410;52.114;5.718;2023-02-07T06:36:19;45.85;;;18.48;;
25503;SDS011;13410;52.114;5.718;2023-02-07T06:38:44;36.35;;;17.00;;
25503;SDS011;13410;52.114;5.718;2023-02-07T06:41:10;41.72;;;18.70;;
25503;SDS011;13410;52.114;5.718;2023-02-07T06:43:36;38.17;;;17.02;;
25503;SDS011;13410;52.114;5.718;2023-02-07T06:46:02;43.50;;;17.42;;
25503;SDS011;13410;52.114;5.718;2023-02-07T06:48:28;64.45;;;25.85;;
25503;SDS011;13410;52.114;5.718;2023-02-07T06:50:53;41.88;;;18.17;;
25503;SDS011;13410;52.114;5.718;2023-02-07T06:53:19;209.25;;;74.25;;
25503;SDS011;13410;52.114;5.718;2023-02-07T06:55:45;62.28;;;25.45;;
25503;SDS011;13410;52.114;5.718;2023-02-07T06:58:10;39.95;;;16.23;;
25503;SDS011;13410;52.114;5.718;2023-02-07T07:00:36;39.35;;;13.88;;
25503;SDS011;13410;52.114;5.718;2023-02-07T07:03:02;41.03;;;17.95;;
25503;SDS011;13410;52.114;5.718;2023-02-07T07:05:28;41.28;;;14.77;;
25503;SDS011;13410;52.114;5.718;2023-02-07T07:07:55;34.90;;;14.68;;
25503;SDS011;13410;52.114;5.718;2023-02-07T07:10:21;37.83;;;15.80;;
25503;SDS011;13410;52.114;5.718;2023-02-07T07:12:46;36.88;;;15.55;;
25503;SDS011;13410;52.114;5.718;2023-02-07T07:15:12;44.05;;;16.83;;
25503;SDS011;13410;52.114;5.718;2023-02-07T07:17:39;47.88;;;19.35;;
25503;SDS011;13410;52.114;5.718;2023-02-07T07:20:05;47.28;;;20.77;;
25503;SDS011;13410;52.114;5.718;2023-02-07T07:22:31;44.60;;;16.25;;
25503;SDS011;13410;52.114;5.718;2023-02-07T07:24:57;40.92;;;18.48;;
25503;SDS011;13410;52.114;5.718;2023-02-07T07:27:23;40.83;;;15.05;;
25503;SDS011;13410;52.114;5.718;2023-02-07T07:29:48;39.33;;;16.08;;
25503;SDS011;13410;52.114;5.718;2023-02-07T07:32:14;33.10;;;14.82;;
25503;SDS011;13410;52.114;5.718;2023-02-07T07:34:40;36.80;;;16.08;;
25503;SDS011;13410;52.114;5.718;2023-02-07T07:37:06;38.42;;;17.60;;
25503;SDS011;13410;52.114;5.718;2023-02-07T07:39:31;46.47;;;20.52;;
25503;SDS011;13410;52.114;5.718;2023-02-07T07:41:57;39.85;;;17.15;;
25503;SDS011;13410;52.114;5.718;2023-02-07T07:44:22;34.75;;;16.23;;
25503;SDS011;13410;52.114;5.718;2023-02-07T07:46:48;43.95;;;18.73;;
25503;SDS011;13410;52.114;5.718;2023-02-07T07:49:14;48.83;;;21.38;;
25503;SDS011;13410;52.114;5.718;2023-02-07T07:51:40;76.03;;;30.30;;
25503;SDS011;13410;52.114;5.718;2023-02-07T07:54:06;88.00;;;36.38;;
25503;SDS011;13410;52.114;5.718;2023-02-07T07:56:31;71.72;;;31.40;;
25503;SDS011;13410;52.114;5.718;2023-02-07T07:58:59;51.35;;;22.73;;
25503;SDS011;13410;52.114;5.718;2023-02-07T08:01:25;44.60;;;19.33;;
25503;SDS011;13410;52.114;5.718;2023-02-07T08:03:51;48.55;;;19.20;;
25503;SDS011;13410;52.114;5.718;2023-02-07T08:06:17;38.80;;;20.35;;
25503;SDS011;13410;52.114;5.718;2023-02-07T08:08:42;40.60;;;18.45;;
25503;SDS011;13410;52.114;5.718;2023-02-07T08:11:08;39.38;;;19.25;;
25503;SDS011;13410;52.114;5.718;2023-02-07T08:13:34;45.10;;;18.80;;
25503;SDS011;13410;52.114;5.718;2023-02-07T08:16:01;40.53;;;18.02;;
25503;SDS011;13410;52.114;5.718;2023-02-07T08:18:27;40.33;;;18.30;;
25503;SDS011;13410;52.114;5.718;2023-02-07T08:20:53;39.75;;;18.00;;
25503;SDS011;13410;52.114;5.718;2023-02-07T08:23:19;41.63;;;18.83;;
25503;SDS011;13410;52.114;5.718;2023-02-07T08:25:45;44.83;;;19.33;;
25503;SDS011;13410;52.114;5.718;2023-02-07T08:28:11;38.72;;;18.55;;
25503;SDS011;13410;52.114;5.718;2023-02-07T08:30:37;41.95;;;19.50;;
25503;SDS011;13410;52.114;5.718;2023-02-07T08:33:03;43.45;;;19.52;;
25503;SDS011;13410;52.114;5.718;2023-02-07T08:35:28;49.47;;;18.70;;
25503;SDS011;13410;52.114;5.718;2023-02-07T08:37:54;48.50;;;21.50;;
25503;SDS011;13410;52.114;5.718;2023-02-07T08:40:20;46.03;;;21.67;;
25503;SDS011;13410;52.114;5.718;2023-02-07T08:42:46;47.90;;;21.55;;
25503;SDS011;13410;52.114;5.718;2023-02-07T08:45:12;59.40;;;25.38;;
25503;SDS011;13410;52.114;5.718;2023-02-07T08:47:39;61.05;;;27.13;;
25503;SDS011;13410;52.114;5.718;2023-02-07T08:50:06;56.63;;;27.27;;
25503;SDS011;13410;52.114;5.718;2023-02-07T08:52:32;68.07;;;29.70;;
25503;SDS011;13410;52.114;5.718;2023-02-07T08:54:58;66.85;;;36.38;;
25503;SDS011;13410;52.114;5.718;2023-02-07T08:57:23;68.38;;;35.55;;
25503;SDS011;13410;52.114;5.718;2023-02-07T08:59:50;72.65;;;40.10;;
25503;SDS011;13410;52.114;5.718;2023-02-07T09:02:16;67.07;;;33.75;;
25503;SDS011;13410;52.114;5.718;2023-02-07T09:04:42;65.85;;;31.77;;
25503;SDS011;13410;52.114;5.718;2023-02-07T09:07:08;56.40;;;26.30;;
25503;SDS011;13410;52.114;5.718;2023-02-07T09:09:35;59.83;;;25.13;;
25503;SDS011;13410;52.114;5.718;2023-02-07T09:12:00;55.70;;;25.83;;
25503;SDS011;13410;52.114;5.718;2023-02-07T09:14:26;65.53;;;30.17;;
25503;SDS011;13410;52.114;5.718;2023-02-07T09:16:51;56.95;;;26.40;;
25503;SDS011;13410;52.114;5.718;2023-02-07T09:19:17;60.13;;;28.38;;
25503;SDS011;13410;52.114;5.718;2023-02-07T09:21:43;59.55;;;27.05;;
25503;SDS011;13410;52.114;5.718;2023-02-07T09:24:09;53.05;;;22.65;;
25503;SDS011;13410;52.114;5.718;2023-02-07T09:26:34;50.42;;;22.95;;
25503;SDS011;13410;52.114;5.718;2023-02-07T09:29:00;51.83;;;23.88;;
25503;SDS011;13410;52.114;5.718;2023-02-07T09:31:26;49.55;;;24.15;;
25503;SDS011;13410;52.114;5.718;2023-02-07T09:33:51;50.78;;;24.05;;
25503;SDS011;13410;52.114;5.718;2023-02-07T09:36:21;47.05;;;22.15;;
25503;SDS011;13410;52.114;5.718;2023-02-07T09:38:49;44.72;;;20.27;;
25503;SDS011;13410;52.114;5.718;2023-02-07T09:44:28;44.97;;;20.67;;
25503;SDS011;13410;52.114;5.718;2023-02-07T09:47:16;40.42;;;19.88;;
25503;SDS011;13410;52.114;5.718;2023-02-07T09:52:54;45.00;;;19.92;;
25503;SDS011;13410;52.114;5.718;2023-02-07T09:55:45;45.72;;;20.00;;
25503;SDS011;13410;52.114;5.718;2023-02-07T09:58:19;41.42;;;19.77;;
25503;SDS011;13410;52.114;5.718;2023-02-07T10:01:00;40.33;;;19.23;;
25503;SDS011;13410;52.114;5.718;2023-02-07T10:06:54;35.00;;;17.80;;
25503;SDS011;13410;52.114;5.718;2023-02-07T10:09:32;41.08;;;17.73;;
25503;SDS011;13410;52.114;5.718;2023-02-07T10:12:04;37.00;;;17.60;;
25503;SDS011;13410;52.114;5.718;2023-02-07T10:23:09;31.30;;;16.17;;
25503;SDS011;13410;52.114;5.718;2023-02-07T10:26:03;29.42;;;15.73;;
25503;SDS011;13410;52.114;5.718;2023-02-07T10:31:49;30.45;;;14.68;;
25503;SDS011;13410;52.114;5.718;2023-02-07T10:34:21;41.57;;;19.03;;
25503;SDS011;13410;52.114;5.718;2023-02-07T10:36:50;28.17;;;15.60;;
25503;SDS011;13410;52.114;5.718;2023-02-07T10:39:21;37.70;;;19.98;;
25503;SDS011;13410;52.114;5.718;2023-02-07T10:41:54;25.42;;;14.77;;
25503;SDS011;13410;52.114;5.718;2023-02-07T10:44:21;25.73;;;14.18;;
25503;SDS011;13410;52.114;5.718;2023-02-07T10:46:57;22.60;;;12.73;;
25503;SDS011;13410;52.114;5.718;2023-02-07T10:49:28;29.55;;;17.02;;
25503;SDS011;13410;52.114;5.718;2023-02-07T10:51:57;30.65;;;17.95;;
25503;SDS011;13410;52.114;5.718;2023-02-07T10:54:50;23.33;;;14.25;;
25503;SDS011;13410;52.114;5.718;2023-02-07T10:57:21;20.10;;;12.50;;
25503;SDS011;13410;52.114;5.718;2023-02-07T10:59:47;18.63;;;11.30;;
25503;SDS011;13410;52.114;5.718;2023-02-07T11:02:30;21.90;;;12.02;;
25503;SDS011;13410;52.114;5.718;2023-02-07T11:07:58;20.38;;;10.90;;
25503;SDS011;13410;52.114;5.718;2023-02-07T11:10:37;20.45;;;12.57;;
25503;SDS011;13410;52.114;5.718;2023-02-07T11:13:05;16.52;;;9.20;;
25503;SDS011;13410;52.114;5.718;2023-02-07T11:15:47;17.40;;;9.13;;
25503;SDS011;13410;52.114;5.718;2023-02-07T11:23:56;41.53;;;23.45;;
25503;SDS011;13410;52.114;5.718;2023-02-07T11:26:24;22.15;;;12.38;;
25503;SDS011;13410;52.114;5.718;2023-02-07T11:28:54;20.85;;;11.00;;
25503;SDS011;13410;52.114;5.718;2023-02-07T11:31:29;12.90;;;7.80;;
25503;SDS011;13410;52.114;5.718;2023-02-07T11:34:06;14.95;;;9.07;;
25503;SDS011;13410;52.114;5.718;2023-02-07T11:36:34;14.18;;;9.13;;
25503;SDS011;13410;52.114;5.718;2023-02-07T11:38:59;11.82;;;7.00;;
25503;SDS011;13410;52.114;5.718;2023-02-07T11:41:26;11.43;;;7.05;;
25503;SDS011;13410;52.114;5.718;2023-02-07T11:43:55;14.05;;;7.57;;
25503;SDS011;13410;52.114;5.718;2023-02-07T11:46:21;12.23;;;6.43;;
25503;SDS011;13410;52.114;5.718;2023-02-07T11:48:53;10.77;;;6.85;;
25503;SDS011;13410;52.114;5.718;2023-02-07T11:51:24;11.13;;;6.40;;
25503;SDS011;13410;52.114;5.718;2023-02-07T11:53:58;11.45;;;6.20;;
25503;SDS011;13410;52.114;5.718;2023-02-07T11:56:36;11.38;;;6.07;;
25503;SDS011;13410;52.114;5.718;2023-02-07T11:59:05;10.60;;;6.53;;
25503;SDS011;13410;52.114;5.718;2023-02-07T12:01:36;41.38;;;22.85;;
25503;SDS011;13410;52.114;5.718;2023-02-07T12:04:25;12.80;;;7.25;;
25503;SDS011;13410;52.114;5.718;2023-02-07T12:10:02;11.52;;;5.90;;
25503;SDS011;13410;52.114;5.718;2023-02-07T12:12:37;9.77;;;5.72;;
25503;SDS011;13410;52.114;5.718;2023-02-07T12:15:31;29.48;;;12.98;;
25503;SDS011;13410;52.114;5.718;2023-02-07T12:18:06;10.85;;;6.68;;
25503;SDS011;13410;52.114;5.718;2023-02-07T12:20:40;11.18;;;5.80;;
25503;SDS011;13410;52.114;5.718;2023-02-07T12:28:47;11.05;;;6.60;;
25503;SDS011;13410;52.114;5.718;2023-02-07T12:31:39;9.48;;;5.53;;
25503;SDS011;13410;52.114;5.718;2023-02-07T12:37:16;9.90;;;5.55;;
25503;SDS011;13410;52.114;5.718;2023-02-07T12:45:33;17.30;;;9.27;;
25503;SDS011;13410;52.114;5.718;2023-02-07T12:56:45;11.25;;;5.72;;
25503;SDS011;13410;52.114;5.718;2023-02-07T12:59:37;10.15;;;5.35;;
25503;SDS011;13410;52.114;5.718;2023-02-07T13:05:05;11.15;;;5.72;;
25503;SDS011;13410;52.114;5.718;2023-02-07T13:21:48;9.30;;;4.63;;
25503;SDS011;13410;52.114;5.718;2023-02-07T13:24:26;9.70;;;6.15;;
25503;SDS011;13410;52.114;5.718;2023-02-07T13:26:56;11.10;;;6.78;;
25503;SDS011;13410;52.114;5.718;2023-02-07T13:29:27;8.25;;;4.72;;
25503;SDS011;13410;52.114;5.718;2023-02-07T13:31:56;9.30;;;5.15;;
25503;SDS011;13410;52.114;5.718;2023-02-07T13:37:16;8.57;;;5.00;;
25503;SDS011;13410;52.114;5.718;2023-02-07T13:45:23;11.98;;;5.45;;
25503;SDS011;13410;52.114;5.718;2023-02-07T13:50:53;8.02;;;4.93;;
25503;SDS011;13410;52.114;5.718;2023-02-07T13:53:41;12.18;;;5.93;;
25503;SDS011;13410;52.114;5.718;2023-02-07T13:56:31;13.05;;;8.50;;
25503;SDS011;13410;52.114;5.718;2023-02-07T13:59:36;9.27;;;5.40;;
25503;SDS011;13410;52.114;5.718;2023-02-07T14:02:03;12.27;;;7.93;;
25503;SDS011;13410;52.114;5.718;2023-02-07T14:04:47;9.27;;;5.82;;
25503;SDS011;13410;52.114;5.718;2023-02-07T14:07:18;10.43;;;5.10;;
25503;SDS011;13410;52.114;5.718;2023-02-07T14:09:53;8.52;;;5.18;;
25503;SDS011;13410;52.114;5.718;2023-02-07T14:12:28;9.05;;;5.97;;
25503;SDS011;13410;52.114;5.718;2023-02-07T14:18:03;11.20;;;5.70;;
25503;SDS011;13410;52.114;5.718;2023-02-07T14:25:39;8.85;;;5.03;;
25503;SDS011;13410;52.114;5.718;2023-02-07T14:28:14;9.07;;;5.10;;
25503;SDS011;13410;52.114;5.718;2023-02-07T14:33:19;7.95;;;4.97;;
25503;SDS011;13410;52.114;5.718;2023-02-07T14:38:38;8.75;;;5.40;;
25503;SDS011;13410;52.114;5.718;2023-02-07T14:41:14;10.88;;;5.40;;
25503;SDS011;13410;52.114;5.718;2023-02-07T14:46:27;9.80;;;5.90;;
25503;SDS011;13410;52.114;5.718;2023-02-07T14:51:52;10.48;;;5.85;;
25503;SDS011;13410;52.114;5.718;2023-02-07T15:00:25;9.38;;;5.88;;
25503;SDS011;13410;52.114;5.718;2023-02-07T15:02:58;10.65;;;6.25;;
25503;SDS011;13410;52.114;5.718;2023-02-07T15:05:56;10.90;;;5.97;;
25503;SDS011;13410;52.114;5.718;2023-02-07T15:08:24;10.03;;;6.03;;
25503;SDS011;13410;52.114;5.718;2023-02-07T15:13:24;8.90;;;5.38;;
25503;SDS011;13410;52.114;5.718;2023-02-07T15:18:34;10.27;;;6.57;;
25503;SDS011;13410;52.114;5.718;2023-02-07T15:21:11;12.45;;;6.30;;
25503;SDS011;13410;52.114;5.718;2023-02-07T15:23:43;9.63;;;5.85;;
25503;SDS011;13410;52.114;5.718;2023-02-07T15:26:16;36.72;;;20.52;;
25503;SDS011;13410;52.114;5.718;2023-02-07T15:28:43;14.73;;;9.02;;
25503;SDS011;13410;52.114;5.718;2023-02-07T15:33:39;9.70;;;6.32;;
25503;SDS011;13410;52.114;5.718;2023-02-07T15:38:59;11.18;;;5.68;;
25503;SDS011;13410;52.114;5.718;2023-02-07T15:41:28;9.68;;;5.82;;
25503;SDS011;13410;52.114;5.718;2023-02-07T15:44:02;7.93;;;5.25;;
25503;SDS011;13410;52.114;5.718;2023-02-07T15:46:45;10.63;;;6.32;;
25503;SDS011;13410;52.114;5.718;2023-02-07T15:54:54;15.40;;;7.57;;
25503;SDS011;13410;52.114;5.718;2023-02-07T15:57:22;10.13;;;6.18;;
25503;SDS011;13410;52.114;5.718;2023-02-07T16:02:53;11.38;;;7.25;;
25503;SDS011;13410;52.114;5.718;2023-02-07T16:05:28;12.52;;;7.78;;
25503;SDS011;13410;52.114;5.718;2023-02-07T16:07:56;16.90;;;10.85;;
25503;SDS011;13410;52.114;5.718;2023-02-07T16:12:52;15.23;;;9.95;;
25503;SDS011;13410;52.114;5.718;2023-02-07T16:15:58;17.85;;;10.35;;
25503;SDS011;13410;52.114;5.718;2023-02-07T16:18:34;16.40;;;10.07;;
25503;SDS011;13410;52.114;5.718;2023-02-07T16:21:06;19.50;;;12.68;;
25503;SDS011;13410;52.114;5.718;2023-02-07T16:23:46;18.77;;;9.95;;
25503;SDS011;13410;52.114;5.718;2023-02-07T16:26:14;21.38;;;11.02;;
25503;SDS011;13410;52.114;5.718;2023-02-07T16:28:43;17.30;;;11.23;;
25503;SDS011;13410;52.114;5.718;2023-02-07T16:31:09;19.63;;;10.93;;
25503;SDS011;13410;52.114;5.718;2023-02-07T16:33:35;17.95;;;11.50;;
25503;SDS011;13410;52.114;5.718;2023-02-07T16:36:01;13.90;;;8.93;;
25503;SDS011;13410;52.114;5.718;2023-02-07T16:38:29;23.25;;;13.23;;
25503;SDS011;13410;52.114;5.718;2023-02-07T16:40:55;18.10;;;11.65;;
25503;SDS011;13410;52.114;5.718;2023-02-07T16:43:36;18.85;;;9.98;;
25503;SDS011;13410;52.114;5.718;2023-02-07T16:46:03;22.77;;;8.45;;
25503;SDS011;13410;52.114;5.718;2023-02-07T16:48:29;14.80;;;7.60;;
25503;SDS011;13410;52.114;5.718;2023-02-07T16:50:55;14.00;;;8.20;;
25503;SDS011;13410;52.114;5.718;2023-02-07T16:53:25;16.08;;;7.57;;
25503;SDS011;13410;52.114;5.718;2023-02-07T16:55:54;14.77;;;7.60;;
25503;SDS011;13410;52.114;5.718;2023-02-07T16:58:26;15.70;;;7.75;;
25503;SDS011;13410;52.114;5.718;2023-02-07T17:00:54;16.42;;;8.70;;
25503;SDS011;13410;52.114;5.718;2023-02-07T17:03:19;17.35;;;8.75;;
25503;SDS011;13410;52.114;5.718;2023-02-07T17:05:45;21.08;;;9.38;;
25503;SDS011;13410;52.114;5.718;2023-02-07T17:08:18;17.67;;;9.30;;
25503;SDS011;13410;52.114;5.718;2023-02-07T17:10:51;14.40;;;9.20;;
25503;SDS011;13410;52.114;5.718;2023-02-07T17:13:20;19.80;;;9.20;;
25503;SDS011;13410;52.114;5.718;2023-02-07T17:15:46;15.80;;;8.82;;
25503;SDS011;13410;52.114;5.718;2023-02-07T17:18:12;16.58;;;8.70;;
25503;SDS011;13410;52.114;5.718;2023-02-07T17:20:38;19.33;;;8.77;;
25503;SDS011;13410;52.114;5.718;2023-02-07T17:23:04;15.70;;;9.25;;
25503;SDS011;13410;52.114;5.718;2023-02-07T17:25:30;15.02;;;9.00;;
25503;SDS011;13410;52.114;5.718;2023-02-07T17:27:56;15.82;;;9.45;;
25503;SDS011;13410;52.114;5.718;2023-02-07T17:30:27;19.63;;;9.75;;
25503;SDS011;13410;52.114;5.718;2023-02-07T17:32:56;19.00;;;11.10;;